Time;durP1;ratioP1;P1;durP2;ratioP2;P2;SDS_P1;SDS_P2;PMS_P1;PMS_P2;Temp;Humidity;BMP_temperature;BMP_pressure;BME280_temperature;BME280_humidity;BME280_pressure;Samples;Min_cycle;Max_cycle;Signal;HPM_P1;HPM_P2
2023/10/15 00:00:15;;;;;;;9.10;2.65;;;7.10;99.90;;;;;;5009245;28;90394;-76
2023/10/15 00:02:42;;;;;;;13.68;3.30;;;7.00;99.90;;;;;;5012639;27;86550;-76
2023/10/15 00:05:15;;;;;;;7.85;2.58;;;7.10;99.90;;;;;;5013419;27;85923;-75
2023/10/15 00:07:41;;;;;;;14.20;2.83;;;7.00;99.90;;;;;;5013222;27;89870;-76
2023/10/15 00:10:15;;;;;;;7.63;2.50;;;7.00;99.90;;;;;;5008060;27;90184;-76
2023/10/15 00:12:43;;;;;;;5.68;2.88;;;7.00;99.90;;;;;;5012685;27;86297;-76
2023/10/15 00:15:19;;;;;;;7.82;2.20;;;7.00;99.90;;;;;;5008615;28;86619;-77
2023/10/15 00:17:53;;;;;;;9.13;2.63;;;6.90;99.90;;;;;;5008036;27;87064;-76
2023/10/15 00:20:20;;;;;;;10.25;2.67;;;6.90;99.90;;;;;;5008550;28;90257;-77
2023/10/15 00:22:47;;;;;;;10.93;3.55;;;6.90;99.90;;;;;;5008369;27;87116;-76
2023/10/15 00:25:18;;;;;;;14.07;2.90;;;6.90;99.90;;;;;;5011769;28;87382;-76
2023/10/15 00:27:56;;;;;;;15.90;2.72;;;6.90;99.90;;;;;;5007713;27;90905;-77
2023/10/15 00:30:32;;;;;;;11.73;3.15;;;6.80;99.90;;;;;;5009443;28;88807;-76
2023/10/15 00:33:06;;;;;;;8.57;2.40;;;6.80;99.90;;;;;;5009402;28;89013;-77
2023/10/15 00:35:35;;;;;;;7.20;2.40;;;6.80;99.90;;;;;;5004209;28;86952;-77
2023/10/15 00:38:07;;;;;;;15.20;2.50;;;6.80;99.90;;;;;;5008597;27;90839;-75
2023/10/15 00:40:37;;;;;;;7.85;2.60;;;6.80;99.90;;;;;;5010421;27;90393;-77
2023/10/15 00:43:06;;;;;;;11.48;2.53;;;6.80;99.90;;;;;;5011978;27;86887;-77
2023/10/15 00:45:43;;;;;;;6.22;2.40;;;6.80;99.90;;;;;;5013773;27;86908;-77
2023/10/15 00:48:11;;;;;;;9.60;2.58;;;6.80;99.90;;;;;;5009225;28;90633;-77
2023/10/15 00:50:40;;;;;;;9.77;2.85;;;6.80;99.90;;;;;;5041552;27;90019;-76
2023/10/15 00:53:21;;;;;;;10.98;2.75;;;6.70;99.90;;;;;;5014139;27;86887;-77
2023/10/15 00:55:55;;;;;;;12.85;3.60;;;6.70;99.90;;;;;;5043850;27;86752;-77
2023/10/15 01:03:53;;;;;;;5.03;1.98;;;6.80;99.90;;;;;;5011324;27;86673;-77
2023/10/15 01:09:07;;;;;;;6.97;2.67;;;6.80;99.90;;;;;;5010740;28;91563;-76
2023/10/15 01:11:37;;;;;;;10.68;3.00;;;6.80;99.90;;;;;;5011226;27;90815;-78
2023/10/15 01:14:03;;;;;;;14.43;2.75;;;6.80;99.90;;;;;;5043902;27;87507;-76
2023/10/15 01:16:35;;;;;;;7.72;2.60;;;6.80;99.90;;;;;;5008119;27;85999;-80
2023/10/15 01:24:19;;;;;;;9.85;2.58;;;6.80;99.90;;;;;;5012046;28;86779;-76
2023/10/15 01:29:33;;;;;;;11.02;3.08;;;6.80;99.90;;;;;;5011537;27;87339;-76
2023/10/15 01:32:02;;;;;;;11.52;3.28;;;6.80;99.90;;;;;;5007735;27;90535;-76
2023/10/15 01:34:29;;;;;;;10.45;3.10;;;6.80;99.90;;;;;;5011165;27;86565;-76
2023/10/15 01:36:57;;;;;;;10.02;2.95;;;6.80;99.90;;;;;;5009773;27;86422;-77
2023/10/15 01:39:37;;;;;;;9.20;2.97;;;6.80;99.90;;;;;;5012832;28;87075;-76
2023/10/15 01:42:06;;;;;;;12.60;3.38;;;6.80;99.90;;;;;;5009093;28;94275;-77
2023/10/15 01:44:32;;;;;;;15.30;3.42;;;6.80;99.90;;;;;;5008954;27;86335;-77
2023/10/15 01:49:33;;;;;;;8.63;2.90;;;6.80;99.90;;;;;;5010748;27;86661;-77
2023/10/15 01:52:09;;;;;;;13.90;3.10;;;6.90;99.90;;;;;;5010467;27;88698;-76
2023/10/15 01:54:37;;;;;;;10.13;3.30;;;6.90;99.90;;;;;;5022352;27;86546;-76
2023/10/15 01:57:06;;;;;;;9.95;2.92;;;6.90;99.90;;;;;;5007402;27;86423;-80
2023/10/15 01:59:47;;;;;;;11.93;2.97;;;6.90;99.90;;;;;;5011024;27;87088;-77
2023/10/15 02:02:15;;;;;;;10.63;3.00;;;6.90;99.90;;;;;;5010102;27;87073;-77
2023/10/15 02:04:44;;;;;;;11.73;3.03;;;6.90;99.90;;;;;;5007830;27;87503;-76
2023/10/15 02:07:15;;;;;;;20.77;3.95;;;7.00;99.90;;;;;;5045237;27;87018;-77
2023/10/15 02:09:43;;;;;;;10.50;3.28;;;7.00;99.90;;;;;;5013562;27;88565;-77
2023/10/15 02:12:13;;;;;;;14.80;3.03;;;6.90;99.90;;;;;;5011783;28;87114;-76
2023/10/15 02:14:41;;;;;;;12.13;3.00;;;6.90;99.90;;;;;;5011408;27;86636;-77
2023/10/15 02:17:13;;;;;;;7.18;2.95;;;6.90;99.90;;;;;;5013778;27;87444;-77
2023/10/15 02:19:41;;;;;;;8.95;2.65;;;6.90;99.90;;;;;;5009176;27;90885;-76
2023/10/15 02:22:12;;;;;;;7.95;3.00;;;6.90;99.90;;;;;;5008778;27;88698;-76
2023/10/15 02:24:47;;;;;;;9.38;2.70;;;6.90;99.90;;;;;;5012777;27;86987;-78
2023/10/15 02:27:25;;;;;;;10.85;2.97;;;6.90;99.90;;;;;;5012845;28;86240;-77
2023/10/15 02:29:54;;;;;;;7.25;2.45;;;6.90;99.90;;;;;;5010176;28;95865;-76
2023/10/15 02:32:21;;;;;;;10.45;2.38;;;6.90;99.90;;;;;;5010139;27;86319;-77
2023/10/15 02:34:50;;;;;;;9.38;2.55;;;6.90;99.90;;;;;;5007679;27;86452;-77
2023/10/15 02:37:23;;;;;;;8.10;1.85;;;6.90;99.90;;;;;;5025208;27;86349;-77
2023/10/15 02:39:52;;;;;;;5.80;2.08;;;6.90;99.90;;;;;;5020138;28;94391;-77
2023/10/15 02:42:19;;;;;;;9.32;2.22;;;6.90;99.90;;;;;;5012569;28;89875;-76
2023/10/15 02:44:51;;;;;;;5.82;2.10;;;6.90;99.90;;;;;;5011032;27;87219;-76
2023/10/15 02:50:03;;;;;;;10.45;1.98;;;6.90;99.90;;;;;;5012405;27;86578;-77
2023/10/15 02:52:45;;;;;;;8.52;3.25;;;6.90;99.90;;;;;;5011831;27;90473;-76
2023/10/15 02:55:11;;;;;;;6.45;1.80;;;6.80;99.90;;;;;;5011062;27;87234;-76
2023/10/15 02:58:00;;;;;;;5.32;1.58;;;6.80;99.90;;;;;;5009609;27;87138;-76
2023/10/15 03:00:29;;;;;;;7.45;1.70;;;6.80;99.90;;;;;;5009531;27;87727;-77
2023/10/15 03:02:56;;;;;;;6.30;1.60;;;6.80;99.90;;;;;;5011494;28;86680;-76
2023/10/15 03:05:30;;;;;;;3.78;1.70;;;6.80;99.90;;;;;;5010113;27;86820;-76
2023/10/15 03:07:59;;;;;;;7.90;2.45;;;6.80;99.90;;;;;;5007048;27;86588;-77
2023/10/15 03:13:32;;;;;;;8.82;1.70;;;6.60;99.90;;;;;;4971195;28;86328;-76
2023/10/15 03:16:07;;;;;;;6.55;1.70;;;6.60;99.90;;;;;;4963164;28;87075;-77
2023/10/15 03:18:34;;;;;;;3.72;1.50;;;6.50;99.90;;;;;;4992213;28;86136;-76
2023/10/15 03:21:16;;;;;;;2.88;1.42;;;6.50;99.90;;;;;;4964983;28;90980;-76
2023/10/15 03:23:42;;;;;;;4.13;1.48;;;6.50;99.90;;;;;;4974807;28;86566;-76
2023/10/15 03:26:17;;;;;;;3.30;1.70;;;6.40;99.90;;;;;;5042743;27;86397;-77
2023/10/15 03:28:44;;;;;;;2.92;1.25;;;6.40;99.90;;;;;;5010893;27;86767;-77
2023/10/15 03:31:16;;;;;;;5.00;1.40;;;6.40;99.90;;;;;;5009160;27;90957;-77
2023/10/15 03:33:59;;;;;;;5.95;1.70;;;6.30;99.90;;;;;;5014515;27;86350;-78
2023/10/15 03:36:25;;;;;;;7.80;1.70;;;6.30;99.90;;;;;;5013144;27;86726;-76
2023/10/15 03:38:51;;;;;;;9.38;1.90;;;6.20;99.90;;;;;;5014334;28;86951;-77
2023/10/15 03:41:27;;;;;;;6.90;1.73;;;6.20;99.90;;;;;;5009145;27;90573;-77
2023/10/15 03:43:53;;;;;;;6.90;1.42;;;6.20;99.90;;;;;;5016761;27;89867;-77
2023/10/15 03:46:19;;;;;;;5.18;1.50;;;6.20;99.90;;;;;;5008933;27;87499;-76
2023/10/15 03:48:49;;;;;;;8.52;1.95;;;6.20;99.90;;;;;;5009506;27;86527;-76
2023/10/15 03:51:20;;;;;;;6.68;1.40;;;6.20;99.90;;;;;;5009591;28;89395;-77
2023/10/15 03:53:49;;;;;;;4.00;1.02;;;6.10;99.90;;;;;;5012631;27;89312;-78
2023/10/15 03:56:18;;;;;;;4.90;1.80;;;6.10;99.90;;;;;;5009892;27;86722;-77
2023/10/15 03:58:44;;;;;;;5.18;1.08;;;6.10;99.90;;;;;;5008099;27;86524;-76
2023/10/15 04:01:14;;;;;;;8.63;2.10;;;6.10;99.90;;;;;;5014094;27;86568;-76
2023/10/15 04:03:43;;;;;;;6.22;1.67;;;6.20;99.90;;;;;;5046108;27;89178;-76
2023/10/15 04:06:09;;;;;;;6.03;1.10;;;6.20;99.90;;;;;;5014722;28;86689;-76
2023/10/15 04:08:37;;;;;;;5.35;1.00;;;6.20;99.90;;;;;;5008260;27;86598;-76
2023/10/15 04:11:03;;;;;;;7.28;1.35;;;6.30;99.90;;;;;;5012873;27;87679;-76
2023/10/15 04:13:29;;;;;;;2.35;1.10;;;6.30;99.90;;;;;;5010354;27;88028;-76
2023/10/15 04:15:56;;;;;;;4.85;1.13;;;6.40;99.90;;;;;;5012865;27;87694;-77
2023/10/15 04:18:23;;;;;;;8.05;1.30;;;6.40;99.90;;;;;;5013637;28;87042;-76
2023/10/15 04:20:49;;;;;;;7.88;1.10;;;6.50;99.90;;;;;;5009736;27;88269;-77
2023/10/15 04:23:30;;;;;;;6.25;1.10;;;6.50;99.90;;;;;;5042097;27;90149;-75
2023/10/15 04:26:00;;;;;;;4.80;0.73;;;6.50;99.90;;;;;;5012239;27;86987;-77
2023/10/15 04:28:27;;;;;;;3.95;1.42;;;6.60;99.90;;;;;;5012233;27;86368;-76
2023/10/15 04:30:53;;;;;;;5.45;1.20;;;6.60;99.90;;;;;;5012286;27;90612;-77
2023/10/15 04:33:20;;;;;;;2.95;0.70;;;6.70;99.90;;;;;;5041984;27;88615;-76
2023/10/15 04:35:49;;;;;;;4.18;0.80;;;6.70;99.90;;;;;;5009403;27;87964;-77
2023/10/15 04:38:28;;;;;;;6.82;0.90;;;6.70;99.90;;;;;;5008403;27;86947;-76
2023/10/15 04:43:26;;;;;;;7.95;1.20;;;6.80;99.90;;;;;;5008826;27;87070;-77
2023/10/15 04:45:55;;;;;;;3.25;0.90;;;6.80;99.90;;;;;;5009697;27;86555;-77
2023/10/15 04:48:33;;;;;;;10.55;1.83;;;6.90;99.90;;;;;;5008873;28;86422;-76
2023/10/15 04:51:06;;;;;;;7.43;2.53;;;6.90;99.90;;;;;;4987778;28;95021;-77
2023/10/15 04:53:32;;;;;;;7.88;0.95;;;7.00;99.90;;;;;;5009954;28;86549;-76
2023/10/15 04:56:00;;;;;;;5.43;0.82;;;7.10;99.90;;;;;;5010398;28;86440;-76
2023/10/15 04:58:27;;;;;;;4.72;0.80;;;7.10;99.90;;;;;;5004523;28;86720;-77
2023/10/15 05:00:57;;;;;;;6.82;1.42;;;7.20;99.90;;;;;;5010199;27;86699;-77
2023/10/15 05:03:22;;;;;;;8.32;1.08;;;7.20;99.90;;;;;;5011150;28;90439;-76
2023/10/15 05:05:48;;;;;;;2.80;0.73;;;7.30;99.90;;;;;;5007575;27;86638;-76
2023/10/15 05:08:17;;;;;;;7.75;1.00;;;7.30;99.90;;;;;;5010884;27;86639;-77
2023/10/15 05:10:45;;;;;;;5.50;1.00;;;7.30;99.90;;;;;;5009431;27;87455;-76
2023/10/15 05:13:14;;;;;;;6.50;1.00;;;7.40;99.90;;;;;;5007466;27;89821;-76
2023/10/15 05:15:42;;;;;;;3.05;0.80;;;7.40;99.90;;;;;;5008063;27;86872;-76
